sensor_id;sensor_type;location;lat;lon;timestamp;pressure;altitude;pressure_sealevel;temperature;humidity
18755;BME280;35061;47.664;9.166;2022-08-07T00:00:23;102060.02;;;18.57;75.71
18755;BME280;35061;47.664;9.166;2022-08-07T00:02:51;102056.87;;;18.61;74.86
18755;BME280;35061;47.664;9.166;2022-08-07T00:05:20;102056.09;;;18.66;75.17
18755;BME280;35061;47.664;9.166;2022-08-07T00:07:50;102068.75;;;18.63;74.94
18755;BME280;35061;47.664;9.166;2022-08-07T00:10:28;102062.11;;;18.57;74.84
18755;BME280;35061;47.664;9.166;2022-08-07T00:13:00;102053.64;;;18.47;74.94
18755;BME280;35061;47.664;9.166;2022-08-07T00:15:49;102059.46;;;18.47;75.34
18755;BME280;35061;47.664;9.166;2022-08-07T00:18:20;102056.55;;;18.47;75.53
18755;BME280;35061;47.664;9.166;2022-08-07T00:20:55;102054.46;;;18.53;76.00
18755;BME280;35061;47.664;9.166;2022-08-07T00:23:33;102052.89;;;18.52;76.33
18755;BME280;35061;47.664;9.166;2022-08-07T00:26:06;102053.12;;;18.49;75.81
18755;BME280;35061;47.664;9.166;2022-08-07T00:28:44;102042.33;;;18.44;75.90
18755;BME280;35061;47.664;9.166;2022-08-07T00:31:22;102039.64;;;18.40;75.82
18755;BME280;35061;47.664;9.166;2022-08-07T00:34:03;102033.04;;;18.34;75.76
18755;BME280;35061;47.664;9.166;2022-08-07T00:36:34;102035.39;;;18.30;76.04
18755;BME280;35061;47.664;9.166;2022-08-07T00:39:07;102034.09;;;18.31;76.28
18755;BME280;35061;47.664;9.166;2022-08-07T00:41:53;102029.87;;;18.32;76.43
18755;BME280;35061;47.664;9.166;2022-08-07T00:44:30;102034.34;;;18.33;75.95
18755;BME280;35061;47.664;9.166;2022-08-07T00:46:59;102021.40;;;18.28;76.35
18755;BME280;35061;47.664;9.166;2022-08-07T00:49:27;102015.61;;;18.28;76.16
18755;BME280;35061;47.664;9.166;2022-08-07T00:52:15;102009.04;;;18.27;76.00
18755;BME280;35061;47.664;9.166;2022-08-07T00:54:46;102013.74;;;18.25;76.62
18755;BME280;35061;47.664;9.166;2022-08-07T00:57:21;102007.70;;;18.23;76.21
18755;BME280;35061;47.664;9.166;2022-08-07T00:59:51;102006.87;;;18.22;76.25
18755;BME280;35061;47.664;9.166;2022-08-07T01:02:20;102007.14;;;18.19;76.55
18755;BME280;35061;47.664;9.166;2022-08-07T01:04:55;102001.58;;;18.21;76.64
18755;BME280;35061;47.664;9.166;2022-08-07T01:07:25;102001.58;;;18.15;76.48
18755;BME280;35061;47.664;9.166;2022-08-07T01:09:55;101993.41;;;18.13;76.66
18755;BME280;35061;47.664;9.166;2022-08-07T01:12:35;101989.97;;;18.15;76.83
18755;BME280;35061;47.664;9.166;2022-08-07T01:15:04;101987.62;;;18.13;76.81
18755;BME280;35061;47.664;9.166;2022-08-07T01:17:37;101982.06;;;18.10;76.78
18755;BME280;35061;47.664;9.166;2022-08-07T01:20:08;101980.49;;;18.09;76.85
18755;BME280;35061;47.664;9.166;2022-08-07T01:22:43;101990.49;;;18.08;77.02
18755;BME280;35061;47.664;9.166;2022-08-07T01:25:32;101974.41;;;18.07;77.53
18755;BME280;35061;47.664;9.166;2022-08-07T01:28:21;101976.27;;;18.10;77.50
18755;BME280;35061;47.664;9.166;2022-08-07T01:30:49;101967.80;;;18.06;77.39
18755;BME280;35061;47.664;9.166;2022-08-07T01:33:19;101968.09;;;18.08;77.50
18755;BME280;35061;47.664;9.166;2022-08-07T01:35:48;101977.84;;;18.11;77.86
18755;BME280;35061;47.664;9.166;2022-08-07T01:38:31;101969.14;;;18.05;77.48
18755;BME280;35061;47.664;9.166;2022-08-07T01:41:02;101969.14;;;18.05;77.61
18755;BME280;35061;47.664;9.166;2022-08-07T01:43:32;101957.47;;;17.99;77.59
18755;BME280;35061;47.664;9.166;2022-08-07T01:46:04;101965.68;;;18.01;77.75
18755;BME280;35061;47.664;9.166;2022-08-07T01:48:34;101964.86;;;18.00;77.84
18755;BME280;35061;47.664;9.166;2022-08-07T01:51:10;101961.95;;;18.00;78.22
18755;BME280;35061;47.664;9.166;2022-08-07T01:54:02;101971.53;;;18.07;78.52
18755;BME280;35061;47.664;9.166;2022-08-07T01:57:04;101970.48;;;18.10;78.04
18755;BME280;35061;47.664;9.166;2022-08-07T01:59:49;101963.62;;;18.13;78.03
18755;BME280;35061;47.664;9.166;2022-08-07T02:02:24;101967.61;;;18.16;77.22
18755;BME280;35061;47.664;9.166;2022-08-07T02:05:18;101967.38;;;18.25;77.66
18755;BME280;35061;47.664;9.166;2022-08-07T02:08:11;101966.30;;;18.22;77.34
18755;BME280;35061;47.664;9.166;2022-08-07T02:10:42;101966.56;;;18.24;77.52
18755;BME280;35061;47.664;9.166;2022-08-07T02:13:22;101961.85;;;18.27;76.97
18755;BME280;35061;47.664;9.166;2022-08-07T02:16:12;101960.28;;;18.32;77.02
18755;BME280;35061;47.664;9.166;2022-08-07T02:18:41;101962.70;;;18.39;76.65
18755;BME280;35061;47.664;9.166;2022-08-07T02:21:13;101967.45;;;18.42;76.40
18755;BME280;35061;47.664;9.166;2022-08-07T02:23:43;101965.58;;;18.39;76.18
18755;BME280;35061;47.664;9.166;2022-08-07T02:26:11;101969.01;;;18.43;75.80
18755;BME280;35061;47.664;9.166;2022-08-07T02:29:01;101966.13;;;18.49;75.85
18755;BME280;35061;47.664;9.166;2022-08-07T02:31:29;101972.22;;;18.57;75.77
18755;BME280;35061;47.664;9.166;2022-08-07T02:33:59;101963.52;;;18.57;74.87
18755;BME280;35061;47.664;9.166;2022-08-07T02:36:37;101957.99;;;18.59;75.08
18755;BME280;35061;47.664;9.166;2022-08-07T02:39:07;101962.18;;;18.58;74.41
18755;BME280;35061;47.664;9.166;2022-08-07T02:41:57;101955.05;;;18.53;74.96
18755;BME280;35061;47.664;9.166;2022-08-07T02:44:26;101959.27;;;18.46;74.95
18755;BME280;35061;47.664;9.166;2022-08-07T02:47:03;101963.71;;;18.41;75.34
18755;BME280;35061;47.664;9.166;2022-08-07T02:49:32;101962.41;;;18.42;75.23
18755;BME280;35061;47.664;9.166;2022-08-07T02:52:25;101963.23;;;18.43;75.52
18755;BME280;35061;47.664;9.166;2022-08-07T02:55:07;101957.41;;;18.43;75.87
18755;BME280;35061;47.664;9.166;2022-08-07T02:57:56;101956.62;;;18.42;75.77
18755;BME280;35061;47.664;9.166;2022-08-07T03:00:27;101947.40;;;18.50;76.05
18755;BME280;35061;47.664;9.166;2022-08-07T03:02:56;101952.70;;;18.46;76.10
18755;BME280;35061;47.664;9.166;2022-08-07T03:05:25;101948.45;;;18.41;76.06
18755;BME280;35061;47.664;9.166;2022-08-07T03:08:04;101942.10;;;18.42;76.22
18755;BME280;35061;47.664;9.166;2022-08-07T03:10:37;101940.04;;;18.49;76.24
18755;BME280;35061;47.664;9.166;2022-08-07T03:13:16;101945.30;;;18.45;76.37
18755;BME280;35061;47.664;9.166;2022-08-07T03:15:45;101941.61;;;18.44;76.52
18755;BME280;35061;47.664;9.166;2022-08-07T03:18:24;101938.70;;;18.44;76.52
18755;BME280;35061;47.664;9.166;2022-08-07T03:21:03;101935.04;;;18.49;76.62
18755;BME280;35061;47.664;9.166;2022-08-07T03:23:38;101939.26;;;18.54;76.65
18755;BME280;35061;47.664;9.166;2022-08-07T03:26:31;101938.96;;;18.52;76.63
18755;BME280;35061;47.664;9.166;2022-08-07T03:29:01;101942.91;;;18.49;76.37
18755;BME280;35061;47.664;9.166;2022-08-07T03:31:30;101935.79;;;18.44;76.70
18755;BME280;35061;47.664;9.166;2022-08-07T03:34:09;101933.70;;;18.45;77.30
18755;BME280;35061;47.664;9.166;2022-08-07T03:36:49;101945.56;;;18.41;76.78
18755;BME280;35061;47.664;9.166;2022-08-07T03:39:19;101951.62;;;18.43;76.93
18755;BME280;35061;47.664;9.166;2022-08-07T03:42:09;101952.66;;;18.40;77.03
18755;BME280;35061;47.664;9.166;2022-08-07T03:44:38;101951.62;;;18.37;77.19
18755;BME280;35061;47.664;9.166;2022-08-07T03:47:07;101949.23;;;18.36;77.01
18755;BME280;35061;47.664;9.166;2022-08-07T03:49:39;101953.67;;;18.31;77.41
18755;BME280;35061;47.664;9.166;2022-08-07T03:52:15;101947.37;;;18.33;77.36
18755;BME280;35061;47.664;9.166;2022-08-07T03:54:59;101943.15;;;18.34;77.32
18755;BME280;35061;47.664;9.166;2022-08-07T03:57:34;101936.31;;;18.37;77.38
18755;BME280;35061;47.664;9.166;2022-08-07T04:00:22;101950.27;;;18.33;77.27
18755;BME280;35061;47.664;9.166;2022-08-07T04:03:01;101945.80;;;18.32;77.67
18755;BME280;35061;47.664;9.166;2022-08-07T04:05:33;101944.20;;;18.31;77.82
18755;BME280;35061;47.664;9.166;2022-08-07T04:08:12;101945.83;;;18.43;77.36
18755;BME280;35061;47.664;9.166;2022-08-07T04:10:43;101945.53;;;18.35;77.50
18755;BME280;35061;47.664;9.166;2022-08-07T04:13:33;101943.41;;;18.36;77.43
18755;BME280;35061;47.664;9.166;2022-08-07T04:16:21;101931.02;;;18.30;77.63
18755;BME280;35061;47.664;9.166;2022-08-07T04:18:58;101941.05;;;18.29;77.98
18755;BME280;35061;47.664;9.166;2022-08-07T04:21:29;101938.37;;;18.25;77.92
18755;BME280;35061;47.664;9.166;2022-08-07T04:24:00;101939.38;;;18.16;78.15
18755;BME280;35061;47.664;9.166;2022-08-07T04:26:33;101940.17;;;18.11;78.41
18755;BME280;35061;47.664;9.166;2022-08-07T04:29:01;101940.70;;;18.09;78.69
18755;BME280;35061;47.664;9.166;2022-08-07T04:31:29;101944.12;;;18.08;78.77
18755;BME280;35061;47.664;9.166;2022-08-07T04:34:18;101950.18;;;18.10;78.89
18755;BME280;35061;47.664;9.166;2022-08-07T04:36:58;101944.42;;;18.16;78.82
18755;BME280;35061;47.664;9.166;2022-08-07T04:39:29;101944.16;;;18.19;78.72
18755;BME280;35061;47.664;9.166;2022-08-07T04:42:02;101954.23;;;18.30;78.39
18755;BME280;35061;47.664;9.166;2022-08-07T04:44:31;101957.93;;;18.36;78.85
18755;BME280;35061;47.664;9.166;2022-08-07T04:47:04;101952.14;;;18.41;78.23
18755;BME280;35061;47.664;9.166;2022-08-07T04:52:27;101956.62;;;18.42;77.44
18755;BME280;35061;47.664;9.166;2022-08-07T04:55:40;101963.98;;;18.32;78.27
18755;BME280;35061;47.664;9.166;2022-08-07T04:58:57;101961.10;;;18.32;78.21
18755;BME280;35061;47.664;9.166;2022-08-07T05:02:03;101966.33;;;18.34;78.42
18755;BME280;35061;47.664;9.166;2022-08-07T05:04:47;101973.20;;;18.36;78.41
18755;BME280;35061;47.664;9.166;2022-08-07T05:10:03;101970.81;;;18.35;78.20
18755;BME280;35061;47.664;9.166;2022-08-07T05:12:43;101976.89;;;18.37;78.67
18755;BME280;35061;47.664;9.166;2022-08-07T05:15:25;101968.75;;;18.41;78.46
18755;BME280;35061;47.664;9.166;2022-08-07T05:17:57;101978.53;;;18.44;78.43
18755;BME280;35061;47.664;9.166;2022-08-07T05:20:39;101976.14;;;18.48;78.24
18755;BME280;35061;47.664;9.166;2022-08-07T05:23:20;101976.66;;;18.52;78.08
18755;BME280;35061;47.664;9.166;2022-08-07T05:25:56;101969.05;;;18.49;78.42
18755;BME280;35061;47.664;9.166;2022-08-07T05:28:41;101973.27;;;18.48;78.19
18755;BME280;35061;47.664;9.166;2022-08-07T05:31:17;101979.87;;;18.48;78.25
18755;BME280;35061;47.664;9.166;2022-08-07T05:33:46;101974.57;;;18.52;78.20
18755;BME280;35061;47.664;9.166;2022-08-07T05:36:30;101966.40;;;18.57;78.39
18755;BME280;35061;47.664;9.166;2022-08-07T05:39:01;101960.61;;;18.57;77.92
18755;BME280;35061;47.664;9.166;2022-08-07T05:41:50;101975.95;;;18.63;78.16
18755;BME280;35061;47.664;9.166;2022-08-07T05:44:33;101980.16;;;18.73;77.94
18755;BME280;35061;47.664;9.166;2022-08-07T05:47:07;101976.47;;;18.78;77.61
18755;BME280;35061;47.664;9.166;2022-08-07T05:49:56;101970.98;;;18.80;77.65
18755;BME280;35061;47.664;9.166;2022-08-07T05:52:24;101974.38;;;18.79;77.40
18755;BME280;35061;47.664;9.166;2022-08-07T05:54:58;101979.15;;;18.88;77.32
18755;BME280;35061;47.664;9.166;2022-08-07T05:57:37;101975.72;;;18.89;77.10
18755;BME280;35061;47.664;9.166;2022-08-07T06:00:08;101983.37;;;18.98;76.96
18755;BME280;35061;47.664;9.166;2022-08-07T06:02:44;101987.13;;;19.04;76.61
18755;BME280;35061;47.664;9.166;2022-08-07T06:05:16;101989.22;;;19.04;76.35
18755;BME280;35061;47.664;9.166;2022-08-07T06:07:51;101982.38;;;19.13;76.41
18755;BME280;35061;47.664;9.166;2022-08-07T06:10:40;101989.52;;;19.17;75.84
18755;BME280;35061;47.664;9.166;2022-08-07T06:13:08;101995.83;;;19.27;75.75
18755;BME280;35061;47.664;9.166;2022-08-07T06:15:41;101990.04;;;19.27;75.54
18755;BME280;35061;47.664;9.166;2022-08-07T06:18:11;101998.48;;;19.25;75.48
18755;BME280;35061;47.664;9.166;2022-08-07T06:20:41;101994.26;;;19.26;75.37
18755;BME280;35061;47.664;9.166;2022-08-07T06:23:31;101993.44;;;19.20;75.28
18755;BME280;35061;47.664;9.166;2022-08-07T06:26:19;101993.99;;;19.18;75.40
18755;BME280;35061;47.664;9.166;2022-08-07T06:28:56;101990.53;;;19.20;75.24
18755;BME280;35061;47.664;9.166;2022-08-07T06:31:26;101993.18;;;19.18;75.08
18755;BME280;35061;47.664;9.166;2022-08-07T06:34:14;101993.99;;;19.24;75.12
18755;BME280;35061;47.664;9.166;2022-08-07T06:36:46;101987.13;;;19.27;74.70
18755;BME280;35061;47.664;9.166;2022-08-07T06:39:18;101984.48;;;19.29;75.16
18755;BME280;35061;47.664;9.166;2022-08-07T06:42:09;101993.44;;;19.37;74.87
18755;BME280;35061;47.664;9.166;2022-08-07T06:44:39;101982.62;;;19.49;74.24
18755;BME280;35061;47.664;9.166;2022-08-07T06:47:07;101987.62;;;19.54;73.78
18755;BME280;35061;47.664;9.166;2022-08-07T06:49:38;101981.54;;;19.58;73.39
18755;BME280;35061;47.664;9.166;2022-08-07T06:52:18;101983.92;;;19.65;73.50
18755;BME280;35061;47.664;9.166;2022-08-07T06:55:08;101981.02;;;19.65;72.73
18755;BME280;35061;47.664;9.166;2022-08-07T06:58:05;101983.40;;;19.61;72.30
18755;BME280;35061;47.664;9.166;2022-08-07T07:00:38;101981.54;;;19.69;72.17
18755;BME280;35061;47.664;9.166;2022-08-07T07:03:08;101984.97;;;19.67;72.08
18755;BME280;35061;47.664;9.166;2022-08-07T07:05:43;101991.31;;;19.72;71.62
18755;BME280;35061;47.664;9.166;2022-08-07T07:08:31;101977.84;;;19.74;71.50
18755;BME280;35061;47.664;9.166;2022-08-07T07:11:01;101976.01;;;19.71;72.10
18755;BME280;35061;47.664;9.166;2022-08-07T07:13:51;101975.45;;;19.67;71.72
18755;BME280;35061;47.664;9.166;2022-08-07T07:16:30;101978.10;;;19.65;71.76
18755;BME280;35061;47.664;9.166;2022-08-07T07:19:19;101987.62;;;19.65;71.24
18755;BME280;35061;47.664;9.166;2022-08-07T07:22:08;101975.45;;;19.61;71.14
18755;BME280;35061;47.664;9.166;2022-08-07T07:24:56;101981.54;;;19.58;71.51
18755;BME280;35061;47.664;9.166;2022-08-07T07:28:02;101980.78;;;19.57;70.76
18755;BME280;35061;47.664;9.166;2022-08-07T07:30:58;101975.48;;;19.56;71.11
18755;BME280;35061;47.664;9.166;2022-08-07T07:33:29;101973.63;;;19.58;71.72
18755;BME280;35061;47.664;9.166;2022-08-07T07:35:59;101973.36;;;19.62;71.71
18755;BME280;35061;47.664;9.166;2022-08-07T07:38:32;101970.98;;;19.60;71.37
18755;BME280;35061;47.664;9.166;2022-08-07T07:41:04;101974.70;;;19.61;72.14
18755;BME280;35061;47.664;9.166;2022-08-07T07:43:37;101965.16;;;19.66;72.07
18755;BME280;35061;47.664;9.166;2022-08-07T07:46:29;101966.20;;;19.74;72.17
18755;BME280;35061;47.664;9.166;2022-08-07T07:49:19;101965.94;;;19.78;71.56
18755;BME280;35061;47.664;9.166;2022-08-07T07:52:09;101969.60;;;19.84;71.56
18755;BME280;35061;47.664;9.166;2022-08-07T07:54:42;101966.95;;;19.92;71.39
18755;BME280;35061;47.664;9.166;2022-08-07T07:57:19;101969.08;;;19.91;70.82
18755;BME280;35061;47.664;9.166;2022-08-07T08:00:08;101971.20;;;20.02;70.92
18755;BME280;35061;47.664;9.166;2022-08-07T08:02:47;101966.66;;;20.07;70.24
18755;BME280;35061;47.664;9.166;2022-08-07T08:05:35;101973.27;;;20.13;70.68
18755;BME280;35061;47.664;9.166;2022-08-07T08:08:23;101977.97;;;20.22;70.61
18755;BME280;35061;47.664;9.166;2022-08-07T08:11:06;101972.94;;;20.28;70.56
18755;BME280;35061;47.664;9.166;2022-08-07T08:13:44;101975.55;;;20.32;70.06
18755;BME280;35061;47.664;9.166;2022-08-07T08:16:24;101974.21;;;20.39;70.39
18755;BME280;35061;47.664;9.166;2022-08-07T08:18:55;101969.96;;;20.40;69.58
18755;BME280;35061;47.664;9.166;2022-08-07T08:21:38;101964.92;;;20.46;69.94
18755;BME280;35061;47.664;9.166;2022-08-07T08:24:33;101970.19;;;20.47;69.39
18755;BME280;35061;47.664;9.166;2022-08-07T08:27:36;101973.63;;;20.52;69.57
18755;BME280;35061;47.664;9.166;2022-08-07T08:30:22;101976.50;;;20.57;69.73
18755;BME280;35061;47.664;9.166;2022-08-07T08:32:57;101976.70;;;20.65;69.43
18755;BME280;35061;47.664;9.166;2022-08-07T08:35:27;101974.27;;;20.69;69.49
18755;BME280;35061;47.664;9.166;2022-08-07T08:38:10;101975.32;;;20.72;69.49
18755;BME280;35061;47.664;9.166;2022-08-07T08:40:47;101975.06;;;20.75;69.01
18755;BME280;35061;47.664;9.166;2022-08-07T08:43:42;101977.41;;;20.83;68.88
18755;BME280;35061;47.664;9.166;2022-08-07T08:46:30;101964.44;;;20.84;68.05
18755;BME280;35061;47.664;9.166;2022-08-07T08:49:15;101976.34;;;20.86;68.03
18755;BME280;35061;47.664;9.166;2022-08-07T08:52:09;101972.61;;;20.85;66.97
18755;BME280;35061;47.664;9.166;2022-08-07T08:54:52;101980.30;;;20.88;67.71
18755;BME280;35061;47.664;9.166;2022-08-07T09:00:58;101982.87;;;20.92;67.72
18755;BME280;35061;47.664;9.166;2022-08-07T09:04:10;101982.35;;;20.94;67.10
18755;BME280;35061;47.664;9.166;2022-08-07T09:12:57;101979.37;;;21.05;66.90
18755;BME280;35061;47.664;9.166;2022-08-07T09:18:18;101984.09;;;21.08;66.90
18755;BME280;35061;47.664;9.166;2022-08-07T09:21:16;101987.52;;;21.12;67.08
18755;BME280;35061;47.664;9.166;2022-08-07T09:31:07;101977.88;;;21.23;66.31
18755;BME280;35061;47.664;9.166;2022-08-07T09:36:30;101986.05;;;21.30;65.59
18755;BME280;35061;47.664;9.166;2022-08-07T09:51:54;101985.13;;;21.47;64.86
18755;BME280;35061;47.664;9.166;2022-08-07T09:54:45;101987.45;;;21.48;65.33
18755;BME280;35061;47.664;9.166;2022-08-07T10:00:07;101995.37;;;21.54;66.04
18755;BME280;35061;47.664;9.166;2022-08-07T10:06:30;101989.94;;;21.69;66.07
18755;BME280;35061;47.664;9.166;2022-08-07T10:09:24;101976.40;;;21.72;65.56
18755;BME280;35061;47.664;9.166;2022-08-07T10:15:38;101976.89;;;21.76;64.99
18755;BME280;35061;47.664;9.166;2022-08-07T10:27:19;101976.17;;;21.95;62.59
18755;BME280;35061;47.664;9.166;2022-08-07T10:30:15;101969.96;;;22.04;63.28
18755;BME280;35061;47.664;9.166;2022-08-07T10:41:28;101964.53;;;22.14;60.36
18755;BME280;35061;47.664;9.166;2022-08-07T10:50:18;101962.99;;;22.32;60.71
18755;BME280;35061;47.664;9.166;2022-08-07T11:01:52;101955.08;;;22.52;58.61
18755;BME280;35061;47.664;9.166;2022-08-07T11:04:58;101944.62;;;22.56;58.79
18755;BME280;35061;47.664;9.166;2022-08-07T11:07:42;101950.08;;;22.66;58.84
18755;BME280;35061;47.664;9.166;2022-08-07T11:10:56;101951.32;;;22.70;58.47
18755;BME280;35061;47.664;9.166;2022-08-07T11:17:42;101948.97;;;22.69;57.45
18755;BME280;35061;47.664;9.166;2022-08-07T11:20:14;101945.08;;;22.80;57.05
18755;BME280;35061;47.664;9.166;2022-08-07T11:23:00;101936.70;;;22.90;56.87
18755;BME280;35061;47.664;9.166;2022-08-07T11:25:35;101942.91;;;22.99;57.14
18755;BME280;35061;47.664;9.166;2022-08-07T11:28:37;101944.03;;;22.96;56.30
18755;BME280;35061;47.664;9.166;2022-08-07T11:31:21;101929.90;;;23.00;56.75
18755;BME280;35061;47.664;9.166;2022-08-07T11:34:02;101930.91;;;23.03;55.56
18755;BME280;35061;47.664;9.166;2022-08-07T11:43:03;101928.13;;;23.24;56.02
18755;BME280;35061;47.664;9.166;2022-08-07T11:52:12;101932.26;;;23.35;55.68
18755;BME280;35061;47.664;9.166;2022-08-07T11:58:17;101921.47;;;23.43;55.17
18755;BME280;35061;47.664;9.166;2022-08-07T12:01:18;101920.02;;;23.50;55.56
18755;BME280;35061;47.664;9.166;2022-08-07T12:04:30;101926.89;;;23.52;55.11
18755;BME280;35061;47.664;9.166;2022-08-07T12:07:11;101928.23;;;23.51;55.14
18755;BME280;35061;47.664;9.166;2022-08-07T12:12:44;101916.76;;;23.53;55.06
18755;BME280;35061;47.664;9.166;2022-08-07T12:15:22;101923.16;;;23.52;55.45
18755;BME280;35061;47.664;9.166;2022-08-07T12:18:35;101917.58;;;23.54;56.41
18755;BME280;35061;47.664;9.166;2022-08-07T12:24:53;101912.48;;;23.68;56.11
18755;BME280;35061;47.664;9.166;2022-08-07T12:27:18;101902.50;;;23.77;55.97
18755;BME280;35061;47.664;9.166;2022-08-07T12:29:59;101900.47;;;23.85;56.11
18755;BME280;35061;47.664;9.166;2022-08-07T12:32:43;101897.63;;;23.93;55.58
18755;BME280;35061;47.664;9.166;2022-08-07T12:35:14;101899.42;;;23.96;56.17
18755;BME280;35061;47.664;9.166;2022-08-07T12:37:46;101900.11;;;24.02;55.80
18755;BME280;35061;47.664;9.166;2022-08-07T12:40:36;101894.39;;;24.10;55.61
18755;BME280;35061;47.664;9.166;2022-08-07T12:43:18;101890.99;;;24.19;55.77
18755;BME280;35061;47.664;9.166;2022-08-07T12:52:14;101887.85;;;24.17;54.21
18755;BME280;35061;47.664;9.166;2022-08-07T12:55:02;101887.26;;;24.19;55.15
18755;BME280;35061;47.664;9.166;2022-08-07T12:57:42;101889.55;;;24.13;55.18
18755;BME280;35061;47.664;9.166;2022-08-07T13:00:59;101887.39;;;24.13;55.39
18755;BME280;35061;47.664;9.166;2022-08-07T13:13:07;101874.12;;;23.98;55.74
18755;BME280;35061;47.664;9.166;2022-08-07T13:26:10;101870.84;;;24.16;56.34
18755;BME280;35061;47.664;9.166;2022-08-07T13:28:15;101864.80;;;24.14;55.79
18755;BME280;35061;47.664;9.166;2022-08-07T13:31:00;101870.42;;;24.11;55.47
18755;BME280;35061;47.664;9.166;2022-08-07T13:40:05;101873.46;;;24.06;56.15
18755;BME280;35061;47.664;9.166;2022-08-07T13:43:00;101868.63;;;24.08;56.74
18755;BME280;35061;47.664;9.166;2022-08-07T13:45:29;101866.50;;;24.09;56.63
18755;BME280;35061;47.664;9.166;2022-08-07T13:48:21;101860.41;;;24.07;56.41
18755;BME280;35061;47.664;9.166;2022-08-07T13:51:00;101855.12;;;24.05;56.45
18755;BME280;35061;47.664;9.166;2022-08-07T13:53:52;101869.41;;;24.09;56.83
18755;BME280;35061;47.664;9.166;2022-08-07T13:56:28;101853.77;;;24.06;56.41
18755;BME280;35061;47.664;9.166;2022-08-07T13:59:10;101858.71;;;24.11;56.79
18755;BME280;35061;47.664;9.166;2022-08-07T14:01:54;101854.98;;;24.11;56.77
18755;BME280;35061;47.664;9.166;2022-08-07T14:04:33;101847.47;;;24.16;56.43
18755;BME280;35061;47.664;9.166;2022-08-07T14:07:17;101851.03;;;24.22;56.73
18755;BME280;35061;47.664;9.166;2022-08-07T14:09:56;101853.38;;;24.23;56.22
18755;BME280;35061;47.664;9.166;2022-08-07T14:13:00;101848.55;;;24.26;56.03
18755;BME280;35061;47.664;9.166;2022-08-07T14:15:36;101849.88;;;24.25;55.26
18755;BME280;35061;47.664;9.166;2022-08-07T14:18:18;101851.68;;;24.28;55.38
18755;BME280;35061;47.664;9.166;2022-08-07T14:23:34;101845.41;;;24.24;55.39
18755;BME280;35061;47.664;9.166;2022-08-07T14:26:29;101843.37;;;24.19;55.46
18755;BME280;35061;47.664;9.166;2022-08-07T14:29:04;101848.88;;;24.22;55.59
18755;BME280;35061;47.664;9.166;2022-08-07T14:31:58;101849.69;;;24.23;55.98
18755;BME280;35061;47.664;9.166;2022-08-07T14:34:28;101853.97;;;24.22;56.40
18755;BME280;35061;47.664;9.166;2022-08-07T14:37:00;101846.32;;;24.19;56.00
18755;BME280;35061;47.664;9.166;2022-08-07T14:39:30;101847.89;;;24.20;55.89
18755;BME280;35061;47.664;9.166;2022-08-07T14:42:26;101856.30;;;24.23;55.80
18755;BME280;35061;47.664;9.166;2022-08-07T14:45:00;101852.60;;;24.23;55.22
18755;BME280;35061;47.664;9.166;2022-08-07T14:47:49;101848.12;;;24.22;55.20
18755;BME280;35061;47.664;9.166;2022-08-07T14:50:25;101846.87;;;24.17;55.21
18755;BME280;35061;47.664;9.166;2022-08-07T14:53:05;101844.75;;;24.18;55.22
18755;BME280;35061;47.664;9.166;2022-08-07T14:55:36;101843.73;;;24.15;54.80
18755;BME280;35061;47.664;9.166;2022-08-07T14:58:26;101844.88;;;24.12;54.55
18755;BME280;35061;47.664;9.166;2022-08-07T15:00:59;101850.37;;;24.02;54.16
18755;BME280;35061;47.664;9.166;2022-08-07T15:03:47;101852.99;;;23.92;54.67
18755;BME280;35061;47.664;9.166;2022-08-07T15:06:26;101850.51;;;23.83;54.90
18755;BME280;35061;47.664;9.166;2022-08-07T15:09:06;101847.73;;;23.77;55.06
18755;BME280;35061;47.664;9.166;2022-08-07T15:12:00;101850.96;;;23.74;55.80
18755;BME280;35061;47.664;9.166;2022-08-07T15:14:32;101848.64;;;23.72;55.92
18755;BME280;35061;47.664;9.166;2022-08-07T15:17:27;101851.68;;;23.66;55.66
18755;BME280;35061;47.664;9.166;2022-08-07T15:20:22;101844.26;;;23.65;55.79
18755;BME280;35061;47.664;9.166;2022-08-07T15:23:17;101851.23;;;23.62;55.73
18755;BME280;35061;47.664;9.166;2022-08-07T15:26:07;101849.98;;;23.58;55.58
18755;BME280;35061;47.664;9.166;2022-08-07T15:28:46;101843.70;;;23.53;55.49
18755;BME280;35061;47.664;9.166;2022-08-07T15:31:23;101843.25;;;23.49;55.47
18755;BME280;35061;47.664;9.166;2022-08-07T15:34:13;101844.13;;;23.44;55.29
18755;BME280;35061;47.664;9.166;2022-08-07T15:36:43;101844.72;;;23.42;55.22
18755;BME280;35061;47.664;9.166;2022-08-07T15:39:36;101835.70;;;23.40;55.25
18755;BME280;35061;47.664;9.166;2022-08-07T15:50:49;101839.65;;;23.30;55.46
18755;BME280;35061;47.664;9.166;2022-08-07T15:53:53;101824.31;;;23.23;55.12
18755;BME280;35061;47.664;9.166;2022-08-07T15:56:35;101828.37;;;23.20;54.91
18755;BME280;35061;47.664;9.166;2022-08-07T15:59:13;101832.42;;;23.17;54.42
18755;BME280;35061;47.664;9.166;2022-08-07T16:02:07;101839.62;;;23.16;54.80
18755;BME280;35061;47.664;9.166;2022-08-07T16:04:41;101836.70;;;23.16;54.99
18755;BME280;35061;47.664;9.166;2022-08-07T16:07:11;101829.02;;;23.13;55.15
18755;BME280;35061;47.664;9.166;2022-08-07T16:10:20;101832.98;;;23.16;55.13
18755;BME280;35061;47.664;9.166;2022-08-07T16:16:15;101832.16;;;23.15;54.67
18755;BME280;35061;47.664;9.166;2022-08-07T16:25:45;101839.16;;;23.12;54.47
18755;BME280;35061;47.664;9.166;2022-08-07T16:31:39;101841.84;;;23.10;54.68
18755;BME280;35061;47.664;9.166;2022-08-07T16:34:31;101842.98;;;23.07;54.67
18755;BME280;35061;47.664;9.166;2022-08-07T16:46:41;101847.66;;;22.96;55.07
18755;BME280;35061;47.664;9.166;2022-08-07T16:49:45;101846.65;;;22.94;55.07
18755;BME280;35061;47.664;9.166;2022-08-07T16:53:05;101853.61;;;22.91;54.73
18755;BME280;35061;47.664;9.166;2022-08-07T16:56:04;101853.94;;;22.87;54.59